createdAt,value
2023-01-23T00:00:22.921Z,101980.84
2023-01-23T00:05:24.613Z,101987.09
2023-01-23T00:10:26.072Z,101990.59
2023-01-23T00:15:27.561Z,101999.41
2023-01-23T00:20:28.980Z,101994.91
2023-01-23T00:25:30.531Z,101983.53
2023-01-23T00:30:32.337Z,101976.53
2023-01-23T00:35:36.884Z,101986.41
2023-01-23T00:40:38.372Z,101983.59
2023-01-23T00:45:39.767Z,101978.66
2023-01-23T00:50:41.239Z,101990.38
2023-01-23T00:55:42.951Z,101986.78
2023-01-23T01:00:44.503Z,101994.09
2023-01-23T01:05:46.417Z,101993.69
2023-01-23T01:10:47.972Z,102003.44
2023-01-23T01:15:51.127Z,102003.59
2023-01-23T01:20:52.607Z,102010.28
2023-01-23T01:25:58.804Z,102009.19
2023-01-23T01:31:12.307Z,102006.06
2023-01-23T01:36:20.768Z,102018.69
2023-01-23T01:41:22.385Z,102006.72
2023-01-23T01:46:26.646Z,102010.34
2023-01-23T01:51:36.862Z,102013.59
2023-01-23T01:56:47.233Z,102013.81
2023-01-23T02:01:53.552Z,102022.50
2023-01-23T02:06:55.854Z,102031.16
2023-01-23T02:11:57.279Z,102025.06
2023-01-23T02:16:58.784Z,102023.25
2023-01-23T02:22:11.955Z,102037.22
2023-01-23T02:27:13.510Z,102039.34
2023-01-23T02:32:15.061Z,102026.13
2023-01-23T02:37:17.309Z,102029.63
2023-01-23T02:42:19.893Z,102034.00
2023-01-23T02:47:21.560Z,102046.97
2023-01-23T02:52:23.121Z,102046.00
2023-01-23T02:57:24.633Z,102046.13
2023-01-23T03:02:26.277Z,102067.16
2023-01-23T03:07:27.739Z,102055.97
2023-01-23T03:12:29.136Z,102061.88
2023-01-23T03:17:30.935Z,102057.78
2023-01-23T03:22:32.433Z,102059.50
2023-01-23T03:27:33.887Z,102054.53
2023-01-23T03:32:35.517Z,102052.25
2023-01-23T03:37:36.933Z,102052.63
2023-01-23T03:42:38.376Z,102054.75
2023-01-23T03:47:39.940Z,102055.16
2023-01-23T03:52:41.407Z,102067.22
2023-01-23T03:57:42.947Z,102073.19
2023-01-23T04:02:44.804Z,102070.28
2023-01-23T04:07:46.237Z,102067.84
2023-01-23T04:12:47.745Z,102061.22
2023-01-23T04:17:49.398Z,102069.03
2023-01-23T04:22:50.830Z,102083.22
2023-01-23T04:27:52.293Z,102085.03
2023-01-23T04:32:53.984Z,102082.47
2023-01-23T04:37:55.603Z,102077.91
2023-01-23T04:42:57.211Z,102087.16
2023-01-23T04:47:58.751Z,102078.56
2023-01-23T04:53:00.150Z,102081.69
2023-01-23T04:58:01.782Z,102071.63
2023-01-23T05:03:04.052Z,102069.03
2023-01-23T05:08:06.067Z,102074.69
2023-01-23T05:13:07.559Z,102069.03
2023-01-23T05:18:09.103Z,102068.94
2023-01-23T05:23:10.533Z,102072.19
2023-01-23T05:28:11.996Z,102072.25
2023-01-23T05:33:13.557Z,102078.13
2023-01-23T05:38:14.971Z,102084.84
2023-01-23T05:43:16.821Z,102094.25
2023-01-23T05:48:18.290Z,102095.06
2023-01-23T05:53:19.818Z,102106.31
2023-01-23T05:58:21.605Z,102114.72
2023-01-23T06:03:23.168Z,102112.31
2023-01-23T06:08:24.749Z,102109.63
2023-01-23T06:13:27.357Z,102118.47
2023-01-23T06:18:29.075Z,102125.59
2023-01-23T06:23:30.785Z,102133.22
2023-01-23T06:28:32.317Z,102135.19
2023-01-23T06:33:33.808Z,102130.03
2023-01-23T06:38:35.447Z,102133.34
2023-01-23T06:43:36.865Z,102136.63
2023-01-23T06:48:38.837Z,102137.59
2023-01-23T06:53:40.313Z,102148.28
2023-01-23T06:58:45.258Z,102144.53
2023-01-23T07:03:46.791Z,102152.53
2023-01-23T07:08:48.205Z,102162.72
2023-01-23T07:13:49.673Z,102169.88
2023-01-23T07:18:51.178Z,102165.22
2023-01-23T07:23:52.827Z,102180.28
2023-01-23T07:28:54.296Z,102181.47
2023-01-23T07:33:55.752Z,102186.88
2023-01-23T07:38:57.349Z,102186.50
2023-01-23T07:43:58.829Z,102195.13
2023-01-23T07:49:00.248Z,102194.63
2023-01-23T07:54:01.642Z,102193.09
2023-01-23T07:59:03.162Z,102199.91
2023-01-23T08:04:04.912Z,102199.09
2023-01-23T08:09:06.421Z,102208.56
2023-01-23T08:14:07.803Z,102203.81
2023-01-23T08:19:09.246Z,102212.31
2023-01-23T08:24:14.792Z,102226.41
2023-01-23T08:29:16.329Z,102230.97
2023-01-23T08:34:17.963Z,102237.97
2023-01-23T08:39:20.132Z,102233.91
2023-01-23T08:44:22.837Z,102243.13
2023-01-23T08:49:24.378Z,102255.06
2023-01-23T08:54:25.939Z,102252.03
2023-01-23T08:59:28.771Z,102259.34
2023-01-23T09:04:30.338Z,102261.91
2023-01-23T09:09:32.067Z,102259.28
2023-01-23T09:14:33.581Z,102251.28
2023-01-23T09:19:35.108Z,102261.91
2023-01-23T09:24:36.603Z,102263.06
2023-01-23T09:29:38.103Z,102262.09
2023-01-23T09:34:39.514Z,102268.34
2023-01-23T09:39:45.198Z,102272.59
2023-01-23T09:44:55.359Z,102264.22
2023-01-23T09:50:02.531Z,102259.75
2023-01-23T09:55:48.985Z,102273.81
2023-01-23T10:00:51.891Z,102280.00
2023-01-23T10:06:22.634Z,102273.09
2023-01-23T10:11:38.685Z,102271.84
2023-01-23T10:16:50.678Z,102275.81
2023-01-23T10:22:17.101Z,102267.78
2023-01-23T10:27:31.058Z,102268.59
2023-01-23T10:32:46.225Z,102269.34
2023-01-23T10:38:04.929Z,102262.72
2023-01-23T10:43:19.568Z,102261.09
2023-01-23T10:48:42.959Z,102255.13
2023-01-23T10:53:44.547Z,102258.09
2023-01-23T10:58:46.775Z,102256.22
2023-01-23T11:03:48.260Z,102247.41
2023-01-23T11:08:59.184Z,102244.97
2023-01-23T11:14:06.819Z,102246.56
2023-01-23T11:19:08.423Z,102243.94
2023-01-23T11:24:27.837Z,102236.56
2023-01-23T11:29:53.865Z,102243.63
2023-01-23T11:35:10.802Z,102243.47
2023-01-23T11:40:16.471Z,102231.91
2023-01-23T11:45:33.428Z,102242.94
2023-01-23T11:50:55.320Z,102238.56
2023-01-23T11:56:06.727Z,102232.25
2023-01-23T12:01:08.594Z,102229.50
2023-01-23T12:06:34.312Z,102233.41
2023-01-23T12:12:06.252Z,102228.19
2023-01-23T12:17:10.346Z,102221.81
2023-01-23T12:22:30.359Z,102217.63
2023-01-23T12:27:46.808Z,102221.50
2023-01-23T12:33:25.333Z,102223.22
2023-01-23T12:39:01.960Z,102210.22
2023-01-23T12:44:33.697Z,102199.03
2023-01-23T12:49:43.533Z,102188.97
2023-01-23T12:55:09.015Z,102195.09
2023-01-23T13:00:28.597Z,102204.09
2023-01-23T13:05:47.964Z,102192.41
2023-01-23T13:11:09.379Z,102192.84
2023-01-23T13:16:16.324Z,102196.28
2023-01-23T13:21:18.553Z,102198.00
2023-01-23T13:26:20.101Z,102206.66
2023-01-23T13:31:44.626Z,102200.38
2023-01-23T13:36:49.650Z,102197.16
2023-01-23T13:42:13.004Z,102198.28
2023-01-23T14:24:48.574Z,102212.41
2023-01-23T14:30:17.573Z,102205.81
2023-01-23T14:35:26.429Z,102209.97
2023-01-23T14:40:33.208Z,102209.00
2023-01-23T14:45:37.467Z,102216.25
2023-01-23T14:50:39.254Z,102215.47
2023-01-23T14:55:44.672Z,102226.84
2023-01-23T15:00:47.868Z,102234.03
2023-01-23T15:05:57.742Z,102218.13
2023-01-23T15:11:00.656Z,102218.38
2023-01-23T15:16:10.887Z,102225.50
2023-01-23T15:21:25.921Z,102217.59
2023-01-23T15:26:40.718Z,102221.38
2023-01-23T15:31:45.078Z,102213.28
2023-01-23T15:36:46.610Z,102230.03
2023-01-23T15:41:55.336Z,102212.38
2023-01-23T15:47:36.943Z,102224.00
2023-01-23T15:52:44.517Z,102217.38
2023-01-23T15:57:45.966Z,102221.84
2023-01-23T16:02:56.392Z,102230.00
2023-01-23T16:08:00.173Z,102231.81
2023-01-23T16:13:02.086Z,102225.88
2023-01-23T16:18:04.012Z,102235.09
2023-01-23T16:23:15.474Z,102236.50
2023-01-23T16:28:20.437Z,102241.59
2023-01-23T16:33:22.222Z,102239.06
2023-01-23T16:38:27.125Z,102245.94
2023-01-23T16:43:28.834Z,102239.00
2023-01-23T16:48:30.426Z,102256.25
2023-01-23T16:53:36.880Z,102245.97
2023-01-23T16:58:39.998Z,102248.25
2023-01-23T17:03:41.906Z,102246.50
2023-01-23T17:08:43.904Z,102264.84
2023-01-23T17:13:45.642Z,102259.63
2023-01-23T17:18:47.152Z,102260.13
2023-01-23T17:23:48.620Z,102269.34
2023-01-23T17:28:50.423Z,102283.38
2023-01-23T17:33:52.325Z,102265.84
2023-01-23T17:38:57.442Z,102270.34
2023-01-23T17:43:58.949Z,102267.69
2023-01-23T17:49:00.847Z,102259.72
2023-01-23T17:54:02.334Z,102254.94
2023-01-23T17:59:03.778Z,102246.38
2023-01-23T18:04:18.485Z,102246.03
2023-01-23T18:09:19.978Z,102235.53
2023-01-23T18:14:41.807Z,102233.78
2023-01-23T18:19:43.739Z,102222.22
2023-01-23T18:24:45.492Z,102236.50
2023-01-23T18:30:13.154Z,102228.50
2023-01-23T18:35:21.263Z,102247.63
2023-01-23T18:40:36.107Z,102249.41
2023-01-23T18:45:37.819Z,102255.00
2023-01-23T18:50:48.121Z,102250.47
2023-01-23T18:56:14.977Z,102246.84
2023-01-23T19:01:28.511Z,102246.97
2023-01-23T19:06:30.267Z,102253.53
2023-01-23T19:11:52.541Z,102260.09
2023-01-23T19:17:39.193Z,102263.81
2023-01-23T19:22:59.141Z,102269.41
2023-01-23T19:28:02.000Z,102273.91
2023-01-23T19:33:03.449Z,102272.97
2023-01-23T19:38:04.854Z,102264.16
2023-01-23T19:43:14.442Z,102261.69
2023-01-23T19:48:16.537Z,102260.81
2023-01-23T19:53:18.145Z,102263.66
2023-01-23T19:58:19.731Z,102275.16
2023-01-23T20:03:21.176Z,102277.13
2023-01-23T20:08:22.542Z,102280.69
2023-01-23T20:13:23.989Z,102275.34
2023-01-23T20:18:25.450Z,102270.34
2023-01-23T20:23:26.925Z,102280.25
2023-01-23T20:28:29.494Z,102273.84
2023-01-23T20:33:31.025Z,102293.13
2023-01-23T20:38:33.326Z,102291.28
2023-01-23T20:43:35.307Z,102279.88
2023-01-23T20:48:38.220Z,102286.94
2023-01-23T20:53:40.274Z,102288.91
2023-01-23T20:58:44.189Z,102283.44
2023-01-23T21:03:48.195Z,102283.31
2023-01-23T21:08:49.794Z,102277.28
2023-01-23T21:13:51.866Z,102283.47
2023-01-23T21:18:53.286Z,102284.09
2023-01-23T21:23:54.927Z,102276.59
2023-01-23T21:28:57.673Z,102288.97
2023-01-23T21:34:04.322Z,102292.28
2023-01-23T21:39:08.590Z,102298.44
2023-01-23T21:44:11.624Z,102308.28
2023-01-23T21:49:13.139Z,102299.34
2023-01-23T21:54:14.594Z,102296.41
2023-01-23T21:59:16.038Z,102307.06
2023-01-23T22:04:19.904Z,102308.09
2023-01-23T22:09:23.278Z,102313.44
2023-01-23T22:14:24.767Z,102305.38
2023-01-23T22:19:26.266Z,102306.25
2023-01-23T22:24:27.759Z,102308.00
2023-01-23T22:29:29.330Z,102311.25
2023-01-23T22:34:30.744Z,102306.44
2023-01-23T22:39:32.478Z,102317.06
2023-01-23T22:44:33.974Z,102305.09
2023-01-23T22:49:35.395Z,102307.84
2023-01-23T22:54:36.860Z,102314.84
2023-01-23T22:59:38.702Z,102320.03
2023-01-23T23:04:40.127Z,102316.28
2023-01-23T23:09:41.597Z,102308.75
2023-01-23T23:14:43.064Z,102311.44
2023-01-23T23:19:44.515Z,102319.03
2023-01-23T23:24:45.929Z,102308.06
2023-01-23T23:29:47.347Z,102318.44
2023-01-23T23:34:48.760Z,102315.44
2023-01-23T23:39:50.294Z,102308.09
2023-01-23T23:44:51.686Z,102311.19
2023-01-23T23:49:53.076Z,102318.19
2023-01-23T23:54:54.567Z,102320.84
2023-01-23T23:59:56.041Z,102310.66
